Round Rock, Arizona
Current Conditions -  °F | °C
As of 1:53 AM on Monday 22 Dec 2014 (Local Time) from KRQE Reporting Station
Clear Clear  
Wind Chill: 31°   Ceiling: Unl
Heat Index: 36°   Visibility: 10mi
Dew Point: 29°   Wind: 6mph
Humidity: 76%   Direction: 200°SSW
Pressure: 30.02"   Gusts: NA
Location:  36.51°N, 109.47°W
Report Text: KRQE 220853Z AUTO 20005KT 10SM CLR 02/M02 A3002 RMK AO2 SLP120 T00221017 56009 TSNO
Loading
Personal Weather Stations






























Interactive Weather Map New forecast layout! Learn more

10-Day Weather Forecast

Advertisements
Track Severe Weather on mobile